sensor_id;sensor_type;location;lat;lon;timestamp;temperature;humidity
11647;DHT22;5880;52.342;9.662;2023-01-29T00:00:00;4.80;62.30
11647;DHT22;5880;52.342;9.662;2023-01-29T00:02:26;4.80;62.30
11647;DHT22;5880;52.342;9.662;2023-01-29T00:04:51;5.00;62.40
11647;DHT22;5880;52.342;9.662;2023-01-29T00:07:17;4.80;62.30
11647;DHT22;5880;52.342;9.662;2023-01-29T00:09:43;4.80;62.30
11647;DHT22;5880;52.342;9.662;2023-01-29T00:12:09;4.80;62.30
11647;DHT22;5880;52.342;9.662;2023-01-29T00:14:35;4.90;62.40
11647;DHT22;5880;52.342;9.662;2023-01-29T00:17:00;4.80;62.30
11647;DHT22;5880;52.342;9.662;2023-01-29T00:19:26;4.80;62.30
11647;DHT22;5880;52.342;9.662;2023-01-29T00:21:52;4.90;62.40
11647;DHT22;5880;52.342;9.662;2023-01-29T00:24:17;4.80;62.30
11647;DHT22;5880;52.342;9.662;2023-01-29T00:26:43;4.90;62.40
11647;DHT22;5880;52.342;9.662;2023-01-29T00:29:09;4.90;62.30
11647;DHT22;5880;52.342;9.662;2023-01-29T00:31:35;4.90;62.30
11647;DHT22;5880;52.342;9.662;2023-01-29T00:34:00;4.90;62.30
11647;DHT22;5880;52.342;9.662;2023-01-29T00:36:27;4.90;62.20
11647;DHT22;5880;52.342;9.662;2023-01-29T00:38:54;4.90;62.20
11647;DHT22;5880;52.342;9.662;2023-01-29T00:41:25;4.90;62.20
11647;DHT22;5880;52.342;9.662;2023-01-29T00:44:10;4.90;62.20
11647;DHT22;5880;52.342;9.662;2023-01-29T00:46:58;4.90;62.30
11647;DHT22;5880;52.342;9.662;2023-01-29T00:49:23;4.80;62.10
11647;DHT22;5880;52.342;9.662;2023-01-29T00:51:50;4.80;62.20
11647;DHT22;5880;52.342;9.662;2023-01-29T00:54:42;4.80;62.30
11647;DHT22;5880;52.342;9.662;2023-01-29T00:57:08;4.80;62.20
11647;DHT22;5880;52.342;9.662;2023-01-29T00:59:34;4.80;62.20
11647;DHT22;5880;52.342;9.662;2023-01-29T01:01:59;4.80;62.20
11647;DHT22;5880;52.342;9.662;2023-01-29T01:04:44;4.80;62.20
11647;DHT22;5880;52.342;9.662;2023-01-29T01:07:09;4.90;62.30
11647;DHT22;5880;52.342;9.662;2023-01-29T01:09:35;4.90;62.30
11647;DHT22;5880;52.342;9.662;2023-01-29T01:12:20;4.80;62.20
11647;DHT22;5880;52.342;9.662;2023-01-29T01:14:47;4.80;62.30
11647;DHT22;5880;52.342;9.662;2023-01-29T01:17:12;4.90;62.40
11647;DHT22;5880;52.342;9.662;2023-01-29T01:19:39;4.90;62.40
11647;DHT22;5880;52.342;9.662;2023-01-29T01:22:05;4.80;62.30
11647;DHT22;5880;52.342;9.662;2023-01-29T01:24:31;4.90;63.20
11647;DHT22;5880;52.342;9.662;2023-01-29T01:26:56;4.90;62.40
11647;DHT22;5880;52.342;9.662;2023-01-29T01:29:22;4.90;62.40
11647;DHT22;5880;52.342;9.662;2023-01-29T01:31:48;4.80;62.30
11647;DHT22;5880;52.342;9.662;2023-01-29T01:34:14;4.90;62.40
11647;DHT22;5880;52.342;9.662;2023-01-29T01:36:40;4.90;62.30
11647;DHT22;5880;52.342;9.662;2023-01-29T01:39:06;4.90;62.30
11647;DHT22;5880;52.342;9.662;2023-01-29T01:41:31;4.90;62.30
11647;DHT22;5880;52.342;9.662;2023-01-29T01:44:00;4.90;62.30
11647;DHT22;5880;52.342;9.662;2023-01-29T01:46:34;4.90;62.30
11647;DHT22;5880;52.342;9.662;2023-01-29T01:49:03;4.90;62.20
11647;DHT22;5880;52.342;9.662;2023-01-29T01:51:36;4.90;62.20
11647;DHT22;5880;52.342;9.662;2023-01-29T01:54:11;4.90;62.20
11647;DHT22;5880;52.342;9.662;2023-01-29T01:56:45;4.90;62.10
11647;DHT22;5880;52.342;9.662;2023-01-29T01:59:16;4.90;62.00
11647;DHT22;5880;52.342;9.662;2023-01-29T02:01:46;4.80;61.80
11647;DHT22;5880;52.342;9.662;2023-01-29T02:04:23;4.80;61.80
11647;DHT22;5880;52.342;9.662;2023-01-29T02:07:12;4.80;61.70
11647;DHT22;5880;52.342;9.662;2023-01-29T02:10:07;4.80;61.70
11647;DHT22;5880;52.342;9.662;2023-01-29T02:12:36;4.70;61.80
11647;DHT22;5880;52.342;9.662;2023-01-29T02:15:03;4.70;61.90
11647;DHT22;5880;52.342;9.662;2023-01-29T02:17:30;4.70;61.80
11647;DHT22;5880;52.342;9.662;2023-01-29T02:20:17;4.60;61.70
11647;DHT22;5880;52.342;9.662;2023-01-29T02:26:49;4.60;61.70
11647;DHT22;5880;52.342;9.662;2023-01-29T02:29:24;4.50;61.70
11647;DHT22;5880;52.342;9.662;2023-01-29T02:32:28;4.60;61.80
11647;DHT22;5880;52.342;9.662;2023-01-29T02:38:08;4.40;61.90
11647;DHT22;5880;52.342;9.662;2023-01-29T02:40:43;4.40;62.20
11647;DHT22;5880;52.342;9.662;2023-01-29T02:43:29;4.40;62.30
11647;DHT22;5880;52.342;9.662;2023-01-29T02:46:25;4.40;62.60
11647;DHT22;5880;52.342;9.662;2023-01-29T02:52:08;4.30;62.80
11647;DHT22;5880;52.342;9.662;2023-01-29T02:57:45;4.40;62.70
11647;DHT22;5880;52.342;9.662;2023-01-29T03:00:20;4.40;62.70
11647;DHT22;5880;52.342;9.662;2023-01-29T03:03:12;4.40;62.70
11647;DHT22;5880;52.342;9.662;2023-01-29T03:05:57;4.40;62.50
11647;DHT22;5880;52.342;9.662;2023-01-29T03:08:40;4.50;62.60
11647;DHT22;5880;52.342;9.662;2023-01-29T03:11:09;4.50;62.60
11647;DHT22;5880;52.342;9.662;2023-01-29T03:13:46;4.50;62.60
11647;DHT22;5880;52.342;9.662;2023-01-29T03:16:50;4.50;62.60
11647;DHT22;5880;52.342;9.662;2023-01-29T03:19:25;4.50;62.60
11647;DHT22;5880;52.342;9.662;2023-01-29T03:21:57;4.50;62.40
11647;DHT22;5880;52.342;9.662;2023-01-29T03:24:29;4.50;62.40
11647;DHT22;5880;52.342;9.662;2023-01-29T03:27:25;4.50;62.40
11647;DHT22;5880;52.342;9.662;2023-01-29T03:30:15;4.60;62.40
11647;DHT22;5880;52.342;9.662;2023-01-29T03:33:05;4.50;62.40
11647;DHT22;5880;52.342;9.662;2023-01-29T03:35:37;4.50;62.40
11647;DHT22;5880;52.342;9.662;2023-01-29T03:38:10;4.60;62.40
11647;DHT22;5880;52.342;9.662;2023-01-29T03:43:20;4.50;62.20
11647;DHT22;5880;52.342;9.662;2023-01-29T03:46:09;4.50;62.40
11647;DHT22;5880;52.342;9.662;2023-01-29T03:51:36;4.60;62.20
11647;DHT22;5880;52.342;9.662;2023-01-29T03:54:25;4.60;62.10
11647;DHT22;5880;52.342;9.662;2023-01-29T03:57:19;4.60;62.00
11647;DHT22;5880;52.342;9.662;2023-01-29T04:00:22;4.60;62.00
11647;DHT22;5880;52.342;9.662;2023-01-29T04:03:15;4.60;62.00
11647;DHT22;5880;52.342;9.662;2023-01-29T04:05:55;4.60;62.00
11647;DHT22;5880;52.342;9.662;2023-01-29T04:08:51;4.60;62.10
11647;DHT22;5880;52.342;9.662;2023-01-29T04:11:24;4.60;62.00
11647;DHT22;5880;52.342;9.662;2023-01-29T04:13:53;4.60;62.10
11647;DHT22;5880;52.342;9.662;2023-01-29T04:16:24;4.60;62.10
11647;DHT22;5880;52.342;9.662;2023-01-29T04:18:56;4.60;62.10
11647;DHT22;5880;52.342;9.662;2023-01-29T04:21:23;4.60;62.10
11647;DHT22;5880;52.342;9.662;2023-01-29T04:23:50;4.60;62.10
11647;DHT22;5880;52.342;9.662;2023-01-29T04:29:30;4.60;62.00
11647;DHT22;5880;52.342;9.662;2023-01-29T04:32:27;4.60;62.00
11647;DHT22;5880;52.342;9.662;2023-01-29T04:38:01;4.60;62.00
11647;DHT22;5880;52.342;9.662;2023-01-29T04:41:05;4.60;62.00
11647;DHT22;5880;52.342;9.662;2023-01-29T04:44:27;4.60;62.00
11647;DHT22;5880;52.342;9.662;2023-01-29T04:47:17;4.60;61.80
11647;DHT22;5880;52.342;9.662;2023-01-29T04:50:16;4.60;61.90
11647;DHT22;5880;52.342;9.662;2023-01-29T04:52:57;4.70;61.90
11647;DHT22;5880;52.342;9.662;2023-01-29T04:55:35;4.70;62.00
11647;DHT22;5880;52.342;9.662;2023-01-29T04:58:11;4.70;62.10
11647;DHT22;5880;52.342;9.662;2023-01-29T05:00:47;4.70;61.90
11647;DHT22;5880;52.342;9.662;2023-01-29T05:03:18;4.70;62.00
11647;DHT22;5880;52.342;9.662;2023-01-29T05:05:47;4.70;62.00
11647;DHT22;5880;52.342;9.662;2023-01-29T05:08:20;4.70;62.00
11647;DHT22;5880;52.342;9.662;2023-01-29T05:10:49;4.70;62.00
11647;DHT22;5880;52.342;9.662;2023-01-29T05:13:19;4.70;62.00
11647;DHT22;5880;52.342;9.662;2023-01-29T05:15:56;4.80;62.00
11647;DHT22;5880;52.342;9.662;2023-01-29T05:18:28;4.70;61.80
11647;DHT22;5880;52.342;9.662;2023-01-29T05:20:56;4.70;61.70
11647;DHT22;5880;52.342;9.662;2023-01-29T05:23:26;4.70;61.60
11647;DHT22;5880;52.342;9.662;2023-01-29T05:25:51;4.70;61.60
11647;DHT22;5880;52.342;9.662;2023-01-29T05:28:17;4.70;61.60
11647;DHT22;5880;52.342;9.662;2023-01-29T05:30:45;4.70;61.60
11647;DHT22;5880;52.342;9.662;2023-01-29T05:33:17;4.70;61.60
11647;DHT22;5880;52.342;9.662;2023-01-29T05:35:44;4.70;61.70
11647;DHT22;5880;52.342;9.662;2023-01-29T05:38:11;4.60;61.60
11647;DHT22;5880;52.342;9.662;2023-01-29T05:40:37;4.60;61.70
11647;DHT22;5880;52.342;9.662;2023-01-29T05:43:03;4.60;61.60
11647;DHT22;5880;52.342;9.662;2023-01-29T05:45:31;4.60;61.60
11647;DHT22;5880;52.342;9.662;2023-01-29T05:47:58;4.80;61.70
11647;DHT22;5880;52.342;9.662;2023-01-29T05:50:25;4.70;61.70
11647;DHT22;5880;52.342;9.662;2023-01-29T05:52:58;4.60;61.70
11647;DHT22;5880;52.342;9.662;2023-01-29T05:55:26;4.60;61.50
11647;DHT22;5880;52.342;9.662;2023-01-29T05:57:54;4.60;61.60
11647;DHT22;5880;52.342;9.662;2023-01-29T06:00:20;4.60;61.70
11647;DHT22;5880;52.342;9.662;2023-01-29T06:02:46;4.60;61.80
11647;DHT22;5880;52.342;9.662;2023-01-29T06:05:11;4.90;62.00
11647;DHT22;5880;52.342;9.662;2023-01-29T06:07:37;4.70;61.90
11647;DHT22;5880;52.342;9.662;2023-01-29T06:10:04;4.70;61.90
11647;DHT22;5880;52.342;9.662;2023-01-29T06:12:30;4.70;61.90
11647;DHT22;5880;52.342;9.662;2023-01-29T06:14:56;4.70;61.90
11647;DHT22;5880;52.342;9.662;2023-01-29T06:17:22;4.70;61.90
11647;DHT22;5880;52.342;9.662;2023-01-29T06:19:47;4.70;61.80
11647;DHT22;5880;52.342;9.662;2023-01-29T06:22:13;4.70;61.90
11647;DHT22;5880;52.342;9.662;2023-01-29T06:24:38;4.70;61.90
11647;DHT22;5880;52.342;9.662;2023-01-29T06:27:04;4.70;61.90
11647;DHT22;5880;52.342;9.662;2023-01-29T06:29:30;4.90;62.00
11647;DHT22;5880;52.342;9.662;2023-01-29T06:31:55;4.70;62.00
11647;DHT22;5880;52.342;9.662;2023-01-29T06:34:21;4.70;62.00
11647;DHT22;5880;52.342;9.662;2023-01-29T06:36:46;4.90;62.00
11647;DHT22;5880;52.342;9.662;2023-01-29T06:39:12;4.70;62.00
11647;DHT22;5880;52.342;9.662;2023-01-29T06:41:38;4.80;61.80
11647;DHT22;5880;52.342;9.662;2023-01-29T06:44:04;4.70;61.90
11647;DHT22;5880;52.342;9.662;2023-01-29T06:46:29;4.80;61.90
11647;DHT22;5880;52.342;9.662;2023-01-29T06:48:57;5.40;62.30
11647;DHT22;5880;52.342;9.662;2023-01-29T06:51:25;4.80;61.80
11647;DHT22;5880;52.342;9.662;2023-01-29T06:53:50;4.80;61.80
11647;DHT22;5880;52.342;9.662;2023-01-29T06:56:18;4.80;61.80
11647;DHT22;5880;52.342;9.662;2023-01-29T06:58:47;4.80;61.70
11647;DHT22;5880;52.342;9.662;2023-01-29T07:01:13;4.90;61.80
11647;DHT22;5880;52.342;9.662;2023-01-29T07:03:39;4.80;61.70
11647;DHT22;5880;52.342;9.662;2023-01-29T07:06:07;4.80;61.80
11647;DHT22;5880;52.342;9.662;2023-01-29T07:08:39;4.80;61.80
11647;DHT22;5880;52.342;9.662;2023-01-29T07:11:07;4.80;62.40
11647;DHT22;5880;52.342;9.662;2023-01-29T07:13:33;4.80;61.80
11647;DHT22;5880;52.342;9.662;2023-01-29T07:16:03;4.80;61.80
11647;DHT22;5880;52.342;9.662;2023-01-29T07:18:30;4.80;61.80
11647;DHT22;5880;52.342;9.662;2023-01-29T07:20:57;4.80;61.90
11647;DHT22;5880;52.342;9.662;2023-01-29T07:23:22;4.80;61.90
11647;DHT22;5880;52.342;9.662;2023-01-29T07:25:49;4.80;62.00
11647;DHT22;5880;52.342;9.662;2023-01-29T07:28:16;4.90;62.10
11647;DHT22;5880;52.342;9.662;2023-01-29T07:30:43;4.80;62.00
11647;DHT22;5880;52.342;9.662;2023-01-29T07:33:09;4.70;62.10
11647;DHT22;5880;52.342;9.662;2023-01-29T07:35:37;4.70;62.10
11647;DHT22;5880;52.342;9.662;2023-01-29T07:38:03;4.70;62.20
11647;DHT22;5880;52.342;9.662;2023-01-29T07:40:29;4.70;63.00
11647;DHT22;5880;52.342;9.662;2023-01-29T07:42:59;4.70;62.30
11647;DHT22;5880;52.342;9.662;2023-01-29T07:45:27;4.70;62.50
11647;DHT22;5880;52.342;9.662;2023-01-29T07:47:54;4.70;62.60
11647;DHT22;5880;52.342;9.662;2023-01-29T07:50:24;4.70;62.70
11647;DHT22;5880;52.342;9.662;2023-01-29T07:52:52;4.70;62.80
11647;DHT22;5880;52.342;9.662;2023-01-29T07:55:18;4.60;62.70
11647;DHT22;5880;52.342;9.662;2023-01-29T07:57:44;4.60;62.80
11647;DHT22;5880;52.342;9.662;2023-01-29T08:00:11;4.60;62.90
11647;DHT22;5880;52.342;9.662;2023-01-29T08:02:39;4.60;62.90
11647;DHT22;5880;52.342;9.662;2023-01-29T08:05:05;4.60;63.00
11647;DHT22;5880;52.342;9.662;2023-01-29T08:07:31;4.60;63.00
11647;DHT22;5880;52.342;9.662;2023-01-29T08:09:57;4.60;63.00
11647;DHT22;5880;52.342;9.662;2023-01-29T08:12:23;4.60;63.10
11647;DHT22;5880;52.342;9.662;2023-01-29T08:14:48;4.60;63.10
11647;DHT22;5880;52.342;9.662;2023-01-29T08:17:14;4.60;63.30
11647;DHT22;5880;52.342;9.662;2023-01-29T08:19:40;4.60;63.30
11647;DHT22;5880;52.342;9.662;2023-01-29T08:22:06;4.60;63.30
11647;DHT22;5880;52.342;9.662;2023-01-29T08:24:32;4.60;63.30
11647;DHT22;5880;52.342;9.662;2023-01-29T08:26:57;4.60;63.30
11647;DHT22;5880;52.342;9.662;2023-01-29T08:29:23;4.70;63.30
11647;DHT22;5880;52.342;9.662;2023-01-29T08:31:49;4.70;63.30
11647;DHT22;5880;52.342;9.662;2023-01-29T08:34:15;4.60;63.20
11647;DHT22;5880;52.342;9.662;2023-01-29T08:36:41;4.70;63.30
11647;DHT22;5880;52.342;9.662;2023-01-29T08:39:06;4.70;63.30
11647;DHT22;5880;52.342;9.662;2023-01-29T08:41:32;4.60;63.30
11647;DHT22;5880;52.342;9.662;2023-01-29T08:43:58;4.70;63.30
11647;DHT22;5880;52.342;9.662;2023-01-29T08:46:25;4.70;63.50
11647;DHT22;5880;52.342;9.662;2023-01-29T08:48:51;4.70;63.50
11647;DHT22;5880;52.342;9.662;2023-01-29T08:51:16;4.70;63.60
11647;DHT22;5880;52.342;9.662;2023-01-29T08:53:42;4.70;63.60
11647;DHT22;5880;52.342;9.662;2023-01-29T08:56:08;4.70;63.70
11647;DHT22;5880;52.342;9.662;2023-01-29T08:58:34;4.80;63.70
11647;DHT22;5880;52.342;9.662;2023-01-29T09:01:08;4.80;63.70
11647;DHT22;5880;52.342;9.662;2023-01-29T09:03:35;4.80;63.80
11647;DHT22;5880;52.342;9.662;2023-01-29T09:06:01;4.90;63.80
11647;DHT22;5880;52.342;9.662;2023-01-29T09:08:28;4.90;63.70
11647;DHT22;5880;52.342;9.662;2023-01-29T09:10:53;4.90;63.70
11647;DHT22;5880;52.342;9.662;2023-01-29T09:13:19;4.90;63.70
11647;DHT22;5880;52.342;9.662;2023-01-29T09:15:44;4.90;63.60
11647;DHT22;5880;52.342;9.662;2023-01-29T09:18:10;4.90;63.60
11647;DHT22;5880;52.342;9.662;2023-01-29T09:20:36;5.00;63.60
11647;DHT22;5880;52.342;9.662;2023-01-29T09:23:06;5.00;63.60
11647;DHT22;5880;52.342;9.662;2023-01-29T09:25:35;5.00;63.60
11647;DHT22;5880;52.342;9.662;2023-01-29T09:28:01;5.00;63.60
11647;DHT22;5880;52.342;9.662;2023-01-29T09:30:27;5.00;63.50
11647;DHT22;5880;52.342;9.662;2023-01-29T09:32:53;5.10;63.60
11647;DHT22;5880;52.342;9.662;2023-01-29T09:35:19;5.10;63.60
11647;DHT22;5880;52.342;9.662;2023-01-29T09:37:47;5.10;63.60
11647;DHT22;5880;52.342;9.662;2023-01-29T09:40:24;5.10;63.60
11647;DHT22;5880;52.342;9.662;2023-01-29T09:43:01;5.10;63.70
11647;DHT22;5880;52.342;9.662;2023-01-29T09:45:31;5.20;63.70
11647;DHT22;5880;52.342;9.662;2023-01-29T09:48:02;5.20;63.70
11647;DHT22;5880;52.342;9.662;2023-01-29T09:50:46;5.20;63.70
11647;DHT22;5880;52.342;9.662;2023-01-29T09:53:33;5.20;63.80
11647;DHT22;5880;52.342;9.662;2023-01-29T09:56:13;5.20;63.80
11647;DHT22;5880;52.342;9.662;2023-01-29T09:58:43;5.30;63.80
11647;DHT22;5880;52.342;9.662;2023-01-29T10:01:48;5.30;63.80
11647;DHT22;5880;52.342;9.662;2023-01-29T10:04:57;5.40;63.90
11647;DHT22;5880;52.342;9.662;2023-01-29T10:10:51;5.50;63.70
11647;DHT22;5880;52.342;9.662;2023-01-29T10:13:47;5.50;63.60
11647;DHT22;5880;52.342;9.662;2023-01-29T10:16:46;5.50;63.70
11647;DHT22;5880;52.342;9.662;2023-01-29T10:19:32;5.50;63.50
11647;DHT22;5880;52.342;9.662;2023-01-29T10:25:27;5.60;63.50
11647;DHT22;5880;52.342;9.662;2023-01-29T10:27:56;5.60;63.40
11647;DHT22;5880;52.342;9.662;2023-01-29T10:30:38;5.60;63.40
11647;DHT22;5880;52.342;9.662;2023-01-29T10:33:15;5.60;63.30
11647;DHT22;5880;52.342;9.662;2023-01-29T10:35:54;5.60;63.40
11647;DHT22;5880;52.342;9.662;2023-01-29T10:38:36;5.60;63.40
11647;DHT22;5880;52.342;9.662;2023-01-29T10:44:03;5.70;63.40
11647;DHT22;5880;52.342;9.662;2023-01-29T10:47:03;5.70;63.40
11647;DHT22;5880;52.342;9.662;2023-01-29T10:57:40;5.70;63.30
11647;DHT22;5880;52.342;9.662;2023-01-29T11:00:40;5.80;63.40
11647;DHT22;5880;52.342;9.662;2023-01-29T11:03:22;5.80;63.40
11647;DHT22;5880;52.342;9.662;2023-01-29T11:05:55;5.80;63.30
11647;DHT22;5880;52.342;9.662;2023-01-29T11:11:14;5.90;63.20
11647;DHT22;5880;52.342;9.662;2023-01-29T11:14:00;5.90;63.20
11647;DHT22;5880;52.342;9.662;2023-01-29T11:16:43;5.90;63.10
11647;DHT22;5880;52.342;9.662;2023-01-29T11:19:11;5.90;63.00
11647;DHT22;5880;52.342;9.662;2023-01-29T11:21:59;5.90;63.10
11647;DHT22;5880;52.342;9.662;2023-01-29T11:24:26;5.90;63.20
11647;DHT22;5880;52.342;9.662;2023-01-29T11:26:54;5.90;63.30
11647;DHT22;5880;52.342;9.662;2023-01-29T11:29:44;6.00;63.30
11647;DHT22;5880;52.342;9.662;2023-01-29T11:32:33;6.00;63.00
11647;DHT22;5880;52.342;9.662;2023-01-29T11:35:03;6.00;62.90
11647;DHT22;5880;52.342;9.662;2023-01-29T11:37:39;6.00;63.00
11647;DHT22;5880;52.342;9.662;2023-01-29T11:40:39;6.00;62.80
11647;DHT22;5880;52.342;9.662;2023-01-29T11:43:20;6.00;63.00
11647;DHT22;5880;52.342;9.662;2023-01-29T11:45:53;6.10;63.10
11647;DHT22;5880;52.342;9.662;2023-01-29T11:48:26;6.10;63.10
11647;DHT22;5880;52.342;9.662;2023-01-29T11:51:12;6.10;63.00
11647;DHT22;5880;52.342;9.662;2023-01-29T11:53:51;6.10;63.00
11647;DHT22;5880;52.342;9.662;2023-01-29T11:56:40;6.10;62.90
11647;DHT22;5880;52.342;9.662;2023-01-29T11:59:42;6.20;62.70
11647;DHT22;5880;52.342;9.662;2023-01-29T12:02:20;6.10;62.40
11647;DHT22;5880;52.342;9.662;2023-01-29T12:07:49;6.20;62.50
11647;DHT22;5880;52.342;9.662;2023-01-29T12:10:36;6.20;62.70
11647;DHT22;5880;52.342;9.662;2023-01-29T12:15:40;6.20;62.50
11647;DHT22;5880;52.342;9.662;2023-01-29T12:21:01;6.20;62.40
11647;DHT22;5880;52.342;9.662;2023-01-29T12:26:36;6.40;62.40
11647;DHT22;5880;52.342;9.662;2023-01-29T12:31:58;6.20;62.30
11647;DHT22;5880;52.342;9.662;2023-01-29T12:34:41;6.20;62.40
11647;DHT22;5880;52.342;9.662;2023-01-29T12:37:40;6.20;62.30
11647;DHT22;5880;52.342;9.662;2023-01-29T12:40:15;6.20;62.20
11647;DHT22;5880;52.342;9.662;2023-01-29T12:42:45;6.20;62.30
11647;DHT22;5880;52.342;9.662;2023-01-29T12:45:19;6.20;62.00
11647;DHT22;5880;52.342;9.662;2023-01-29T12:47:53;6.10;61.90
11647;DHT22;5880;52.342;9.662;2023-01-29T12:50:24;6.10;62.10
11647;DHT22;5880;52.342;9.662;2023-01-29T12:56:12;6.10;62.10
11647;DHT22;5880;52.342;9.662;2023-01-29T12:58:46;6.10;62.10
11647;DHT22;5880;52.342;9.662;2023-01-29T13:01:32;6.10;62.00
11647;DHT22;5880;52.342;9.662;2023-01-29T13:04:10;6.10;61.90
11647;DHT22;5880;52.342;9.662;2023-01-29T13:06:49;6.10;61.90
11647;DHT22;5880;52.342;9.662;2023-01-29T13:09:25;6.10;62.00
11647;DHT22;5880;52.342;9.662;2023-01-29T13:12:01;6.00;61.90
11647;DHT22;5880;52.342;9.662;2023-01-29T13:20:08;6.00;62.90
11647;DHT22;5880;52.342;9.662;2023-01-29T13:22:43;6.00;62.20
11647;DHT22;5880;52.342;9.662;2023-01-29T13:25:14;6.00;62.20
11647;DHT22;5880;52.342;9.662;2023-01-29T13:27:42;6.00;62.20
11647;DHT22;5880;52.342;9.662;2023-01-29T13:30:28;6.10;62.40
11647;DHT22;5880;52.342;9.662;2023-01-29T13:32:57;6.10;62.40
11647;DHT22;5880;52.342;9.662;2023-01-29T13:35:41;6.10;62.40
11647;DHT22;5880;52.342;9.662;2023-01-29T13:38:25;6.10;62.30
11647;DHT22;5880;52.342;9.662;2023-01-29T13:41:01;6.10;62.30
11647;DHT22;5880;52.342;9.662;2023-01-29T13:43:35;6.10;62.30
11647;DHT22;5880;52.342;9.662;2023-01-29T13:46:16;6.10;62.40
11647;DHT22;5880;52.342;9.662;2023-01-29T13:48:48;6.10;62.40
11647;DHT22;5880;52.342;9.662;2023-01-29T13:51:19;6.10;62.20
11647;DHT22;5880;52.342;9.662;2023-01-29T13:53:57;6.10;62.20
11647;DHT22;5880;52.342;9.662;2023-01-29T13:57:16;6.10;62.10
11647;DHT22;5880;52.342;9.662;2023-01-29T13:59:48;6.10;62.10
11647;DHT22;5880;52.342;9.662;2023-01-29T14:02:25;6.10;62.00
11647;DHT22;5880;52.342;9.662;2023-01-29T14:10:40;6.10;62.30
11647;DHT22;5880;52.342;9.662;2023-01-29T14:15:43;6.10;62.40
11647;DHT22;5880;52.342;9.662;2023-01-29T14:23:46;6.10;62.50
11647;DHT22;5880;52.342;9.662;2023-01-29T14:29:19;6.20;62.50
11647;DHT22;5880;52.342;9.662;2023-01-29T14:37:37;6.10;62.50
11647;DHT22;5880;52.342;9.662;2023-01-29T14:40:13;6.10;62.60
11647;DHT22;5880;52.342;9.662;2023-01-29T14:42:56;6.10;62.60
11647;DHT22;5880;52.342;9.662;2023-01-29T14:56:15;6.00;62.70
11647;DHT22;5880;52.342;9.662;2023-01-29T14:58:48;6.10;62.70
11647;DHT22;5880;52.342;9.662;2023-01-29T15:01:29;6.00;62.50
11647;DHT22;5880;52.342;9.662;2023-01-29T15:06:45;6.00;62.50
11647;DHT22;5880;52.342;9.662;2023-01-29T15:09:36;6.00;62.60
11647;DHT22;5880;52.342;9.662;2023-01-29T15:15:37;5.90;62.80
11647;DHT22;5880;52.342;9.662;2023-01-29T15:18:15;5.90;62.80
11647;DHT22;5880;52.342;9.662;2023-01-29T15:20:47;5.80;62.60
11647;DHT22;5880;52.342;9.662;2023-01-29T15:23:30;5.80;62.60
11647;DHT22;5880;52.342;9.662;2023-01-29T15:25:59;5.80;62.80
11647;DHT22;5880;52.342;9.662;2023-01-29T15:28:33;5.80;62.80
11647;DHT22;5880;52.342;9.662;2023-01-29T15:31:01;5.70;62.80
11647;DHT22;5880;52.342;9.662;2023-01-29T15:33:30;5.70;62.80
11647;DHT22;5880;52.342;9.662;2023-01-29T15:35:59;5.70;62.90
11647;DHT22;5880;52.342;9.662;2023-01-29T15:38:26;5.70;63.00
11647;DHT22;5880;52.342;9.662;2023-01-29T15:41:02;5.70;63.00
11647;DHT22;5880;52.342;9.662;2023-01-29T15:43:47;5.70;63.30
11647;DHT22;5880;52.342;9.662;2023-01-29T15:46:25;5.70;63.10
11647;DHT22;5880;52.342;9.662;2023-01-29T15:48:56;5.60;63.30
11647;DHT22;5880;52.342;9.662;2023-01-29T15:51:26;5.60;63.10
11647;DHT22;5880;52.342;9.662;2023-01-29T15:53:55;5.70;63.20
11647;DHT22;5880;52.342;9.662;2023-01-29T15:56:38;5.50;63.20
11647;DHT22;5880;52.342;9.662;2023-01-29T15:59:18;5.60;63.20
11647;DHT22;5880;52.342;9.662;2023-01-29T16:02:28;5.60;63.30
11647;DHT22;5880;52.342;9.662;2023-01-29T16:05:03;5.50;63.30
11647;DHT22;5880;52.342;9.662;2023-01-29T16:07:31;5.50;63.20
11647;DHT22;5880;52.342;9.662;2023-01-29T16:09:59;5.50;63.20
11647;DHT22;5880;52.342;9.662;2023-01-29T16:12:26;5.50;63.30
11647;DHT22;5880;52.342;9.662;2023-01-29T16:14:52;5.50;63.40
11647;DHT22;5880;52.342;9.662;2023-01-29T16:17:25;5.50;63.40
11647;DHT22;5880;52.342;9.662;2023-01-29T16:19:58;5.50;63.60
11647;DHT22;5880;52.342;9.662;2023-01-29T16:22:29;5.50;63.60
11647;DHT22;5880;52.342;9.662;2023-01-29T16:25:04;5.50;63.60
11647;DHT22;5880;52.342;9.662;2023-01-29T16:27:35;5.50;63.60
11647;DHT22;5880;52.342;9.662;2023-01-29T16:30:02;5.50;63.50
11647;DHT22;5880;52.342;9.662;2023-01-29T16:32:29;5.50;63.50
11647;DHT22;5880;52.342;9.662;2023-01-29T16:34:57;5.60;63.60
11647;DHT22;5880;52.342;9.662;2023-01-29T16:37:30;5.50;63.70
11647;DHT22;5880;52.342;9.662;2023-01-29T16:40:00;5.50;63.70
11647;DHT22;5880;52.342;9.662;2023-01-29T16:42:40;5.50;63.70
11647;DHT22;5880;52.342;9.662;2023-01-29T16:45:27;5.50;63.70
11647;DHT22;5880;52.342;9.662;2023-01-29T16:48:01;5.50;63.90
11647;DHT22;5880;52.342;9.662;2023-01-29T16:51:11;5.50;63.70
11647;DHT22;5880;52.342;9.662;2023-01-29T16:53:39;5.50;63.70
11647;DHT22;5880;52.342;9.662;2023-01-29T16:56:20;5.50;64.40
11647;DHT22;5880;52.342;9.662;2023-01-29T16:58:49;5.50;63.60
11647;DHT22;5880;52.342;9.662;2023-01-29T17:01:17;5.50;63.50
11647;DHT22;5880;52.342;9.662;2023-01-29T17:03:43;5.50;63.50
11647;DHT22;5880;52.342;9.662;2023-01-29T17:06:22;5.50;63.50
11647;DHT22;5880;52.342;9.662;2023-01-29T17:08:49;5.50;63.60
11647;DHT22;5880;52.342;9.662;2023-01-29T17:14:07;5.50;63.70
11647;DHT22;5880;52.342;9.662;2023-01-29T17:16:35;5.50;63.50
11647;DHT22;5880;52.342;9.662;2023-01-29T17:19:17;5.40;63.40
11647;DHT22;5880;52.342;9.662;2023-01-29T17:21:48;5.40;63.40
11647;DHT22;5880;52.342;9.662;2023-01-29T17:24:13;5.40;63.50
11647;DHT22;5880;52.342;9.662;2023-01-29T17:26:39;5.40;63.40
11647;DHT22;5880;52.342;9.662;2023-01-29T17:29:07;5.40;63.50
11647;DHT22;5880;52.342;9.662;2023-01-29T17:31:37;5.40;63.50
11647;DHT22;5880;52.342;9.662;2023-01-29T17:34:09;5.40;63.50
11647;DHT22;5880;52.342;9.662;2023-01-29T17:36:37;5.50;63.70
11647;DHT22;5880;52.342;9.662;2023-01-29T17:39:12;5.40;64.20
11647;DHT22;5880;52.342;9.662;2023-01-29T17:41:42;5.40;63.50
11647;DHT22;5880;52.342;9.662;2023-01-29T17:44:11;5.40;63.50
11647;DHT22;5880;52.342;9.662;2023-01-29T17:46:37;5.50;63.50
11647;DHT22;5880;52.342;9.662;2023-01-29T17:49:03;5.40;63.40
11647;DHT22;5880;52.342;9.662;2023-01-29T17:51:49;5.40;63.30
11647;DHT22;5880;52.342;9.662;2023-01-29T17:54:19;5.40;63.30
11647;DHT22;5880;52.342;9.662;2023-01-29T17:56:46;5.40;63.30
11647;DHT22;5880;52.342;9.662;2023-01-29T17:59:17;5.40;63.30
11647;DHT22;5880;52.342;9.662;2023-01-29T18:01:44;5.40;63.30
11647;DHT22;5880;52.342;9.662;2023-01-29T18:04:10;5.40;63.30
11647;DHT22;5880;52.342;9.662;2023-01-29T18:06:37;5.40;63.30
11647;DHT22;5880;52.342;9.662;2023-01-29T18:09:04;5.40;63.30
11647;DHT22;5880;52.342;9.662;2023-01-29T18:11:30;5.40;63.40
11647;DHT22;5880;52.342;9.662;2023-01-29T18:13:56;5.40;63.30
11647;DHT22;5880;52.342;9.662;2023-01-29T18:16:23;5.40;63.30
11647;DHT22;5880;52.342;9.662;2023-01-29T18:18:50;5.40;63.40
11647;DHT22;5880;52.342;9.662;2023-01-29T18:21:17;5.40;63.40
11647;DHT22;5880;52.342;9.662;2023-01-29T18:23:43;5.40;63.40
11647;DHT22;5880;52.342;9.662;2023-01-29T18:26:12;5.40;63.40
11647;DHT22;5880;52.342;9.662;2023-01-29T18:28:40;5.40;63.40
11647;DHT22;5880;52.342;9.662;2023-01-29T18:31:08;5.50;63.50